Time;durP1;ratioP1;P1;durP2;ratioP2;P2;SDS_P1;SDS_P2;PMS_P1;PMS_P2;Temp;Humidity;BMP_temperature;BMP_pressure;BME280_temperature;BME280_humidity;BME280_pressure;Samples;Min_cycle;Max_cycle;Signal;HPM_P1;HPM_P2
2023/03/08 00:00:20;;;;;;;0.57;0.57;;;2.50;99.90;;;;;;5039401;28;20831;-72
2023/03/08 00:02:46;;;;;;;0.20;0.20;;;2.50;99.90;;;;;;5034784;28;20441;-72
2023/03/08 00:05:13;;;;;;;0.20;0.20;;;2.50;99.90;;;;;;5043745;28;20458;-71
2023/03/08 00:07:40;;;;;;;0.10;0.10;;;2.50;99.90;;;;;;5045022;28;20431;-72
2023/03/08 00:10:08;;;;;;;0.30;0.30;;;2.40;99.90;;;;;;5048759;28;20487;-72
2023/03/08 00:12:35;;;;;;;0.30;0.30;;;2.40;99.90;;;;;;5040877;28;20432;-72
2023/03/08 00:15:05;;;;;;;0.20;0.20;;;2.40;99.90;;;;;;5041204;28;21126;-72
2023/03/08 00:17:36;;;;;;;0.35;0.35;;;2.30;99.90;;;;;;5040460;28;20421;-73
2023/03/08 00:20:05;;;;;;;0.20;0.20;;;2.30;99.90;;;;;;5045337;28;20488;-72
2023/03/08 00:22:38;;;;;;;0.20;0.20;;;2.40;99.90;;;;;;5038624;28;20429;-72
2023/03/08 00:25:07;;;;;;;0.15;0.15;;;2.40;99.90;;;;;;5041833;28;20437;-72
2023/03/08 00:27:37;;;;;;;0.10;0.10;;;2.30;99.90;;;;;;5039766;28;20520;-72
2023/03/08 00:30:07;;;;;;;0.20;0.20;;;2.30;99.90;;;;;;5048654;28;20433;-72
2023/03/08 00:32:34;;;;;;;0.22;0.22;;;2.30;99.90;;;;;;5042681;28;20427;-72
2023/03/08 00:35:00;;;;;;;0.45;0.45;;;2.20;99.90;;;;;;5043566;28;20908;-72
2023/03/08 00:37:29;;;;;;;0.25;0.25;;;2.20;99.90;;;;;;5037877;28;20477;-72
2023/03/08 00:39:58;;;;;;;0.60;0.30;;;2.20;99.90;;;;;;5046861;28;20429;-72
2023/03/08 00:42:26;;;;;;;0.20;0.20;;;2.20;99.90;;;;;;5046760;28;20508;-71
2023/03/08 00:44:56;;;;;;;0.40;0.40;;;2.20;99.90;;;;;;5044935;28;20911;-71
2023/03/08 00:47:22;;;;;;;0.20;0.20;;;2.20;99.90;;;;;;5036699;28;20454;-72
2023/03/08 00:49:51;;;;;;;0.50;0.40;;;2.20;99.90;;;;;;5047230;28;20425;-71
2023/03/08 00:52:18;;;;;;;0.20;0.20;;;2.10;99.90;;;;;;5035826;28;20797;-72
2023/03/08 00:54:45;;;;;;;0.30;0.30;;;2.20;99.90;;;;;;5050670;28;20427;-71
2023/03/08 00:57:11;;;;;;;0.25;0.25;;;2.20;99.90;;;;;;5049099;28;20421;-71
2023/03/08 00:59:38;;;;;;;0.30;0.30;;;2.20;99.90;;;;;;5046022;28;20437;-71
2023/03/08 01:02:05;;;;;;;0.28;0.28;;;2.20;99.90;;;;;;5050616;28;20510;-71
2023/03/08 01:04:33;;;;;;;0.20;0.20;;;2.20;99.90;;;;;;5043035;28;20426;-72
2023/03/08 01:07:00;;;;;;;0.20;0.20;;;2.20;99.90;;;;;;5045036;28;20433;-72
2023/03/08 01:09:30;;;;;;;0.10;0.10;;;2.20;99.90;;;;;;5038220;28;20433;-71
2023/03/08 01:12:01;;;;;;;0.20;0.20;;;2.20;99.90;;;;;;5046402;28;20436;-71
2023/03/08 01:14:29;;;;;;;0.20;0.20;;;2.20;99.90;;;;;;5042604;28;20838;-71
2023/03/08 01:16:56;;;;;;;0.20;0.20;;;2.20;99.90;;;;;;5044084;28;20446;-71
2023/03/08 01:19:22;;;;;;;0.22;0.22;;;2.20;99.90;;;;;;5033176;28;20422;-71
2023/03/08 01:21:49;;;;;;;0.40;0.40;;;2.20;99.90;;;;;;5045574;28;20684;-71
2023/03/08 01:24:16;;;;;;;0.50;0.50;;;2.20;99.90;;;;;;5045110;28;20442;-71
2023/03/08 01:26:43;;;;;;;0.30;0.30;;;2.20;99.90;;;;;;5044901;28;20432;-71
2023/03/08 01:29:12;;;;;;;0.30;0.30;;;2.20;99.90;;;;;;5039813;28;20441;-71
2023/03/08 01:31:38;;;;;;;0.30;0.30;;;2.20;99.90;;;;;;5047122;28;20973;-71
2023/03/08 01:34:05;;;;;;;0.40;0.40;;;2.20;99.90;;;;;;5047615;28;20429;-71
2023/03/08 01:36:32;;;;;;;0.40;0.40;;;2.20;99.90;;;;;;5036012;28;20425;-71
2023/03/08 01:39:00;;;;;;;0.70;0.50;;;2.20;99.90;;;;;;5046988;28;20467;-71
2023/03/08 01:41:29;;;;;;;0.30;0.30;;;2.30;99.90;;;;;;5035518;28;20495;-71
2023/03/08 01:43:56;;;;;;;0.35;0.32;;;2.40;99.90;;;;;;5041201;28;20434;-72
2023/03/08 01:46:27;;;;;;;0.20;0.20;;;2.40;99.90;;;;;;5044498;28;20918;-71
2023/03/08 01:49:17;;;;;;;0.30;0.30;;;2.30;99.90;;;;;;5047169;28;20500;-71
2023/03/08 01:52:10;;;;;;;0.27;0.27;;;2.40;99.90;;;;;;5043219;28;20906;-71
2023/03/08 01:54:46;;;;;;;0.25;0.17;;;2.50;99.90;;;;;;5046926;28;20915;-71
2023/03/08 01:57:16;;;;;;;0.30;0.30;;;2.50;99.90;;;;;;5046813;28;20423;-71
2023/03/08 01:59:45;;;;;;;0.60;0.43;;;2.40;99.90;;;;;;5045156;28;20484;-71
2023/03/08 02:02:12;;;;;;;0.53;0.53;;;2.40;99.90;;;;;;5042718;28;20438;-71
2023/03/08 02:04:40;;;;;;;0.40;0.40;;;2.40;55.40;;;;;;5047084;28;20433;-71
2023/03/08 02:07:09;;;;;;;0.50;0.50;;;2.30;10.90;;;;;;5039516;28;20434;-71
2023/03/08 02:09:36;;;;;;;0.38;0.38;;;2.30;24.10;;;;;;5043485;28;20512;-72
2023/03/08 02:12:10;;;;;;;0.30;0.30;;;2.20;53.90;;;;;;5042573;28;20512;-72
2023/03/08 02:14:38;;;;;;;0.20;0.20;;;2.20;67.60;;;;;;5041707;28;20535;-71
2023/03/08 02:17:05;;;;;;;0.45;0.45;;;2.20;99.90;;;;;;5046835;28;20910;-71
2023/03/08 02:19:37;;;;;;;0.50;0.40;;;2.20;99.90;;;;;;5051454;28;20424;-72
2023/03/08 02:22:11;;;;;;;0.30;0.30;;;2.10;99.90;;;;;;5048684;28;20452;-72
2023/03/08 02:24:38;;;;;;;0.57;0.57;;;2.10;99.90;;;;;;5050622;28;20436;-72
2023/03/08 02:27:27;;;;;;;0.30;0.30;;;2.10;99.90;;;;;;5034104;28;20427;-72
2023/03/08 02:29:53;;;;;;;0.30;0.30;;;2.20;99.90;;;;;;5040653;28;20441;-71
2023/03/08 02:32:20;;;;;;;0.65;0.65;;;2.20;99.90;;;;;;5049130;28;20433;-72
2023/03/08 02:34:47;;;;;;;0.30;0.30;;;2.20;99.90;;;;;;5039741;28;20439;-71
2023/03/08 02:37:13;;;;;;;0.32;0.32;;;2.20;99.90;;;;;;5035890;28;20536;-72
2023/03/08 02:39:40;;;;;;;0.77;0.10;;;2.20;99.90;;;;;;5048501;28;20440;-71
2023/03/08 02:42:07;;;;;;;0.40;0.40;;;2.20;99.90;;;;;;5038826;28;20797;-71
2023/03/08 02:44:37;;;;;;;1.40;0.60;;;2.20;99.90;;;;;;5047588;28;20432;-71
2023/03/08 02:47:03;;;;;;;1.30;0.30;;;2.20;99.90;;;;;;5046421;28;20437;-71
2023/03/08 02:49:30;;;;;;;0.20;0.20;;;2.20;99.90;;;;;;5040265;28;20438;-71
2023/03/08 02:51:57;;;;;;;0.30;0.30;;;2.10;99.90;;;;;;5031122;28;20442;-71
2023/03/08 02:54:27;;;;;;;0.50;0.40;;;2.10;99.90;;;;;;5047474;28;20487;-71
2023/03/08 02:56:55;;;;;;;0.77;0.77;;;2.10;99.90;;;;;;5048669;28;20509;-71
2023/03/08 02:59:22;;;;;;;0.80;0.80;;;2.10;1.00;;;;;;5031350;28;20415;-71
2023/03/08 03:01:49;;;;;;;0.70;0.70;;;2.20;1.00;;;;;;5042468;28;20468;-71
2023/03/08 03:04:16;;;;;;;1.00;0.70;;;2.20;1.00;;;;;;5037029;28;20426;-71
2023/03/08 03:06:43;;;;;;;0.50;0.50;;;2.20;1.00;;;;;;5045847;28;20429;-71
2023/03/08 03:09:10;;;;;;;0.93;0.63;;;2.20;1.00;;;;;;5049817;28;20455;-71
2023/03/08 03:11:39;;;;;;;0.50;0.40;;;2.20;1.00;;;;;;5043554;28;20531;-71
2023/03/08 03:14:08;;;;;;;0.88;0.68;;;2.20;1.00;;;;;;5039118;28;21156;-71
2023/03/08 03:16:37;;;;;;;2.05;0.77;;;2.20;1.00;;;;;;5044347;28;20425;-71
2023/03/08 03:19:04;;;;;;;0.47;0.47;;;2.20;1.00;;;;;;5046486;28;20429;-71
2023/03/08 03:21:30;;;;;;;0.57;0.57;;;2.30;1.00;;;;;;5045066;28;20471;-71
2023/03/08 03:23:57;;;;;;;0.70;0.70;;;2.30;99.90;;;;;;5047153;28;20440;-71
2023/03/08 03:26:24;;;;;;;0.75;0.60;;;2.40;54.60;;;;;;5046282;28;20459;-71
2023/03/08 03:28:54;;;;;;;1.20;1.15;;;2.40;1.00;;;;;;5050029;28;20429;-71
2023/03/08 03:31:22;;;;;;;3.50;1.30;;;2.40;87.30;;;;;;5041301;28;20431;-71
2023/03/08 03:33:49;;;;;;;1.70;1.48;;;2.50;1.00;;;;;;5038166;28;20431;-71
2023/03/08 03:36:19;;;;;;;1.20;1.20;;;2.60;99.90;;;;;;5046164;28;20429;-71
2023/03/08 03:38:46;;;;;;;0.85;0.85;;;2.70;30.20;;;;;;5049240;28;20426;-71
2023/03/08 03:41:21;;;;;;;1.40;1.30;;;2.80;1.00;;;;;;5044887;28;20459;-71
2023/03/08 03:43:48;;;;;;;0.80;0.80;;;2.90;1.00;;;;;;5046163;28;20426;-71
2023/03/08 03:46:19;;;;;;;1.85;1.58;;;3.00;1.00;;;;;;5034318;28;21209;-71
2023/03/08 03:48:46;;;;;;;1.67;1.00;;;3.00;1.00;;;;;;5046621;28;20452;-71
2023/03/08 03:51:15;;;;;;;1.70;1.10;;;3.00;1.00;;;;;;5047034;28;20942;-71
2023/03/08 03:53:42;;;;;;;0.80;0.80;;;3.00;1.00;;;;;;5047257;28;21114;-71
2023/03/08 03:56:14;;;;;;;2.80;1.52;;;3.10;1.00;;;;;;5046312;28;20846;-71
2023/03/08 03:58:42;;;;;;;2.25;1.30;;;3.10;1.00;;;;;;5042083;28;20990;-71
2023/03/08 04:01:10;;;;;;;1.63;1.52;;;3.20;1.00;;;;;;5044165;28;20456;-71
2023/03/08 04:03:37;;;;;;;2.60;1.93;;;3.30;1.00;;;;;;5044930;28;20447;-71
2023/03/08 04:06:14;;;;;;;3.05;1.30;;;3.30;1.00;;;;;;5040308;28;20434;-72
2023/03/08 04:08:45;;;;;;;1.15;1.13;;;3.30;1.00;;;;;;5030083;28;20953;-71
2023/03/08 04:11:14;;;;;;;2.00;1.80;;;3.30;1.00;;;;;;5036068;28;20524;-71
2023/03/08 04:13:42;;;;;;;0.98;0.98;;;3.30;1.00;;;;;;5035263;28;20455;-71
2023/03/08 04:16:13;;;;;;;1.67;1.37;;;3.20;1.00;;;;;;5038624;28;20504;-71
2023/03/08 04:18:40;;;;;;;1.15;1.05;;;3.20;99.90;;;;;;5045128;28;20429;-71
2023/03/08 04:21:07;;;;;;;2.00;1.60;;;3.30;99.90;;;;;;5040439;28;20474;-71
2023/03/08 04:23:35;;;;;;;2.20;0.82;;;3.20;99.90;;;;;;5042419;28;20463;-71
2023/03/08 04:26:05;;;;;;;3.55;1.27;;;3.30;99.90;;;;;;5048088;28;20429;-71
2023/03/08 04:28:32;;;;;;;1.00;1.00;;;3.30;99.90;;;;;;5033797;28;20432;-71
2023/03/08 04:31:14;;;;;;;2.05;1.10;;;3.20;99.90;;;;;;5053080;28;20439;-71
2023/03/08 04:33:42;;;;;;;1.27;1.27;;;3.30;99.90;;;;;;5033608;28;20431;-71
2023/03/08 04:36:12;;;;;;;1.33;1.05;;;3.20;99.90;;;;;;5048154;28;20429;-71
2023/03/08 04:38:39;;;;;;;5.80;1.75;;;3.20;99.90;;;;;;5048881;28;20425;-71
2023/03/08 04:41:10;;;;;;;1.10;1.05;;;3.20;99.90;;;;;;5050133;28;20433;-71
2023/03/08 04:43:39;;;;;;;1.88;1.77;;;3.20;99.90;;;;;;5034038;28;20488;-71
2023/03/08 04:46:07;;;;;;;1.45;1.35;;;3.20;99.90;;;;;;5044303;28;20429;-71
2023/03/08 04:48:34;;;;;;;1.20;1.02;;;3.20;99.90;;;;;;5051483;28;20456;-71
2023/03/08 04:51:03;;;;;;;1.35;1.25;;;3.20;99.90;;;;;;5043703;28;20426;-71
2023/03/08 04:53:30;;;;;;;2.37;2.00;;;3.10;99.90;;;;;;5036973;28;20523;-71
2023/03/08 04:56:01;;;;;;;2.25;1.35;;;3.20;99.90;;;;;;5049608;28;20425;-71
2023/03/08 04:58:29;;;;;;;1.35;1.20;;;3.20;99.90;;;;;;5051461;28;20430;-71
2023/03/08 05:00:58;;;;;;;1.38;1.35;;;3.20;99.90;;;;;;5051058;28;20851;-71
2023/03/08 05:03:28;;;;;;;1.58;1.10;;;3.20;99.90;;;;;;5046533;28;20425;-71
2023/03/08 05:05:55;;;;;;;1.65;1.52;;;3.20;99.90;;;;;;5048519;28;20486;-71
2023/03/08 05:08:22;;;;;;;1.67;1.33;;;3.30;99.90;;;;;;5048695;28;20930;-71
2023/03/08 05:10:58;;;;;;;1.50;1.40;;;3.30;99.90;;;;;;5049470;28;20435;-71
2023/03/08 05:13:29;;;;;;;2.08;0.95;;;3.30;99.90;;;;;;5050259;28;20433;-71
2023/03/08 05:15:56;;;;;;;0.70;0.70;;;3.20;99.90;;;;;;5043332;28;20437;-71
2023/03/08 05:18:23;;;;;;;1.35;1.27;;;3.30;99.90;;;;;;5051192;28;20557;-71
2023/03/08 05:20:59;;;;;;;2.03;1.27;;;3.30;99.90;;;;;;5048301;28;20435;-71
2023/03/08 05:23:27;;;;;;;1.63;1.17;;;3.20;99.90;;;;;;5049223;28;20904;-71
2023/03/08 05:25:59;;;;;;;1.63;1.52;;;3.20;99.90;;;;;;5049708;28;20425;-71
2023/03/08 05:28:31;;;;;;;1.23;1.03;;;3.10;99.90;;;;;;5051859;28;20956;-71
2023/03/08 05:31:10;;;;;;;1.60;1.40;;;3.10;99.90;;;;;;5040485;28;20429;-71
2023/03/08 05:33:41;;;;;;;1.83;1.23;;;3.10;99.90;;;;;;5032490;28;20962;-71
2023/03/08 05:36:09;;;;;;;1.42;1.10;;;3.10;99.90;;;;;;5038775;28;20455;-71
2023/03/08 05:38:36;;;;;;;2.42;1.30;;;3.10;99.90;;;;;;5047188;28;20425;-71
2023/03/08 05:41:05;;;;;;;2.67;1.70;;;3.10;99.90;;;;;;5044527;28;20429;-71
2023/03/08 05:43:32;;;;;;;1.00;1.00;;;3.10;99.90;;;;;;5032890;28;20529;-72
2023/03/08 05:46:02;;;;;;;2.35;1.33;;;3.10;99.90;;;;;;5029996;28;20435;-71
2023/03/08 05:48:31;;;;;;;2.15;1.42;;;3.10;99.90;;;;;;5040217;28;20432;-72
2023/03/08 05:51:03;;;;;;;1.42;1.13;;;3.00;99.90;;;;;;5048610;28;20425;-71
2023/03/08 05:53:29;;;;;;;1.30;1.20;;;3.00;99.90;;;;;;5048467;28;20429;-71
2023/03/08 05:55:56;;;;;;;1.77;1.13;;;3.00;99.90;;;;;;5036963;28;20439;-71
2023/03/08 05:58:23;;;;;;;1.58;1.48;;;3.00;99.90;;;;;;5051091;28;20461;-72
2023/03/08 06:00:50;;;;;;;1.08;1.08;;;3.00;99.90;;;;;;5039782;28;20508;-72
2023/03/08 06:03:16;;;;;;;1.20;1.10;;;3.10;99.90;;;;;;5040837;28;20526;-72
2023/03/08 06:05:45;;;;;;;0.60;0.60;;;3.10;99.90;;;;;;5041502;28;20441;-73
2023/03/08 06:08:12;;;;;;;2.00;1.40;;;3.10;99.90;;;;;;5037493;28;21024;-72
2023/03/08 06:10:39;;;;;;;1.17;1.08;;;3.20;99.90;;;;;;5042147;28;20428;-71
2023/03/08 06:13:05;;;;;;;1.88;1.33;;;3.20;99.90;;;;;;5041783;28;20447;-71
2023/03/08 06:15:32;;;;;;;1.33;1.15;;;3.20;99.90;;;;;;5046720;28;20919;-70
2023/03/08 06:17:59;;;;;;;0.80;0.80;;;3.20;99.90;;;;;;5045485;28;20425;-70
2023/03/08 06:20:26;;;;;;;4.37;1.20;;;3.10;99.90;;;;;;5045158;28;20502;-70
2023/03/08 06:22:53;;;;;;;2.63;1.30;;;3.10;99.90;;;;;;5034966;28;20438;-71
2023/03/08 06:25:34;;;;;;;0.98;0.93;;;3.00;99.90;;;;;;5035353;28;20437;-70
2023/03/08 06:28:01;;;;;;;0.70;0.57;;;2.90;99.90;;;;;;5030586;28;20435;-70
2023/03/08 06:30:27;;;;;;;1.60;1.50;;;2.80;99.90;;;;;;5042196;28;20460;-71
2023/03/08 06:32:54;;;;;;;0.80;0.63;;;2.70;99.90;;;;;;5043901;28;20434;-70
2023/03/08 06:35:24;;;;;;;1.00;1.00;;;2.60;99.90;;;;;;5039239;28;20516;-70
2023/03/08 06:37:53;;;;;;;1.25;1.15;;;2.60;99.90;;;;;;5042007;28;20429;-69
2023/03/08 06:40:20;;;;;;;0.77;0.77;;;2.60;99.90;;;;;;5040861;28;20527;-71
2023/03/08 06:42:49;;;;;;;1.30;0.90;;;2.60;99.90;;;;;;5038661;28;20478;-70
2023/03/08 06:45:19;;;;;;;1.15;1.10;;;2.60;99.90;;;;;;5040515;28;20429;-70
2023/03/08 06:47:46;;;;;;;1.23;1.08;;;2.70;99.90;;;;;;5038779;28;20434;-70
2023/03/08 06:50:15;;;;;;;8.13;2.05;;;2.70;99.90;;;;;;5036890;28;22990;-70
2023/03/08 06:52:42;;;;;;;2.10;1.90;;;2.70;99.90;;;;;;5040526;28;20500;-70
2023/03/08 06:55:09;;;;;;;3.10;1.23;;;2.80;99.90;;;;;;5037980;28;20431;-70
2023/03/08 06:57:36;;;;;;;2.58;1.75;;;2.80;99.90;;;;;;5039512;28;20425;-71
2023/03/08 07:00:03;;;;;;;1.75;1.65;;;2.90;99.90;;;;;;5027908;28;20421;-69
2023/03/08 07:02:32;;;;;;;3.33;1.42;;;2.90;99.90;;;;;;5041261;28;20976;-69
2023/03/08 07:04:59;;;;;;;3.33;1.30;;;2.90;99.90;;;;;;5044966;28;20952;-69
2023/03/08 07:07:26;;;;;;;1.30;1.20;;;3.00;99.90;;;;;;5040725;28;20517;-69
2023/03/08 07:09:52;;;;;;;5.53;0.90;;;3.00;99.90;;;;;;5042401;28;20437;-69
2023/03/08 07:12:23;;;;;;;3.57;1.33;;;3.10;99.90;;;;;;5036125;28;20518;-69
2023/03/08 07:14:52;;;;;;;2.30;0.60;;;3.10;99.90;;;;;;5043980;28;20433;-69
2023/03/08 07:17:22;;;;;;;0.88;0.88;;;3.10;99.90;;;;;;5041498;28;20438;-69
2023/03/08 07:19:49;;;;;;;0.88;0.88;;;3.20;99.90;;;;;;5045816;28;20437;-69
2023/03/08 07:22:16;;;;;;;4.05;2.10;;;3.20;99.90;;;;;;5040402;28;20439;-68
2023/03/08 07:24:46;;;;;;;1.08;1.08;;;3.20;99.90;;;;;;5048192;28;20425;-68
2023/03/08 07:27:15;;;;;;;1.40;1.20;;;3.20;99.90;;;;;;5040603;28;20429;-69
2023/03/08 07:29:42;;;;;;;10.30;2.15;;;3.20;99.90;;;;;;5032806;28;20430;-69
2023/03/08 07:32:08;;;;;;;5.50;1.48;;;3.10;99.90;;;;;;5038597;28;20431;-69
2023/03/08 07:34:38;;;;;;;0.70;0.70;;;2.90;99.90;;;;;;5034742;28;20734;-68
2023/03/08 07:37:09;;;;;;;1.02;1.02;;;2.70;99.90;;;;;;5036849;28;20517;-70
2023/03/08 07:39:36;;;;;;;1.67;1.02;;;2.60;99.90;;;;;;5034786;28;20424;-68
2023/03/08 07:42:03;;;;;;;1.88;1.27;;;2.50;99.90;;;;;;5042440;28;20469;-70
2023/03/08 07:44:30;;;;;;;1.63;1.10;;;2.40;99.90;;;;;;5045295;28;20429;-67
2023/03/08 07:46:56;;;;;;;3.35;1.30;;;2.20;1.00;;;;;;5037890;28;20426;-67
2023/03/08 07:49:23;;;;;;;1.48;1.40;;;2.10;1.00;;;;;;5038235;28;20429;-67
2023/03/08 07:51:52;;;;;;;1.40;1.30;;;2.10;1.00;;;;;;5037691;28;20831;-67
2023/03/08 07:54:18;;;;;;;1.50;1.10;;;2.10;1.00;;;;;;5044220;28;20508;-67
2023/03/08 07:56:48;;;;;;;1.70;1.58;;;2.00;1.00;;;;;;5048060;28;20429;-67
2023/03/08 07:59:14;;;;;;;2.20;1.40;;;1.90;1.00;;;;;;5049577;28;20429;-67
2023/03/08 08:01:41;;;;;;;1.60;1.25;;;1.90;1.00;;;;;;5047461;28;20836;-68
2023/03/08 08:04:08;;;;;;;1.98;1.88;;;2.00;1.00;;;;;;5041767;28;20429;-68
2023/03/08 08:06:35;;;;;;;1.45;1.38;;;2.00;1.00;;;;;;5038733;28;20439;-68
2023/03/08 08:09:02;;;;;;;1.30;0.95;;;2.00;1.00;;;;;;5035361;28;20431;-65
2023/03/08 08:11:29;;;;;;;1.92;0.85;;;2.10;14.50;;;;;;5035778;28;20436;-68
2023/03/08 08:13:55;;;;;;;2.15;1.05;;;2.10;80.30;;;;;;5046808;28;20776;-68
2023/03/08 08:16:22;;;;;;;1.42;1.08;;;2.00;99.90;;;;;;5042447;28;20962;-68
2023/03/08 08:18:51;;;;;;;0.73;0.73;;;2.00;99.90;;;;;;5035189;28;20518;-68
2023/03/08 08:21:18;;;;;;;1.30;1.20;;;2.00;1.00;;;;;;5044680;28;20979;-68
2023/03/08 08:23:45;;;;;;;1.20;1.20;;;2.00;17.20;;;;;;5044286;28;20429;-69
2023/03/08 08:26:21;;;;;;;1.70;1.60;;;2.00;99.90;;;;;;5034052;28;20440;-69
2023/03/08 08:28:51;;;;;;;1.15;1.05;;;2.00;1.00;;;;;;5036718;28;20433;-69
2023/03/08 08:31:21;;;;;;;0.85;0.85;;;2.10;92.30;;;;;;5033974;28;20436;-69
2023/03/08 08:33:54;;;;;;;0.95;0.95;;;2.00;99.90;;;;;;5029439;28;20904;-69
2023/03/08 08:36:33;;;;;;;0.90;0.82;;;2.10;99.90;;;;;;5032164;28;20951;-69
2023/03/08 08:39:04;;;;;;;1.27;0.85;;;2.00;99.90;;;;;;5033707;28;20430;-69
2023/03/08 08:41:31;;;;;;;2.60;0.93;;;1.90;99.90;;;;;;5031781;28;20448;-69
2023/03/08 08:43:59;;;;;;;0.90;0.90;;;1.90;1.00;;;;;;5030259;28;20439;-68
2023/03/08 08:46:26;;;;;;;0.70;0.70;;;1.90;33.80;;;;;;5041281;28;20487;-68
2023/03/08 08:48:54;;;;;;;1.60;1.27;;;1.90;1.00;;;;;;5043329;28;20444;-69
2023/03/08 08:51:22;;;;;;;2.30;1.20;;;1.90;1.00;;;;;;5044214;28;20502;-69
2023/03/08 08:54:05;;;;;;;1.00;1.00;;;1.90;99.90;;;;;;5040030;28;20928;-69
2023/03/08 08:56:33;;;;;;;0.75;0.75;;;1.90;1.00;;;;;;5036429;28;20436;-69
2023/03/08 08:59:01;;;;;;;1.10;1.10;;;1.90;1.00;;;;;;5043371;28;20846;-69
2023/03/08 09:01:30;;;;;;;1.65;1.27;;;2.00;97.60;;;;;;5045287;28;20484;-69
2023/03/08 09:03:58;;;;;;;0.90;0.90;;;2.00;20.30;;;;;;5043919;28;20468;-69
2023/03/08 09:06:28;;;;;;;1.75;1.65;;;1.90;18.50;;;;;;5040336;28;20449;-69
2023/03/08 09:08:57;;;;;;;1.70;1.60;;;1.90;99.90;;;;;;5036618;28;20435;-69
2023/03/08 09:11:25;;;;;;;3.95;1.80;;;1.80;99.90;;;;;;5039884;28;20784;-69
2023/03/08 09:13:52;;;;;;;2.10;0.85;;;1.90;1.00;;;;;;5042507;28;20444;-69
2023/03/08 09:16:23;;;;;;;1.90;1.77;;;1.80;1.00;;;;;;5046855;28;20433;-70
2023/03/08 09:18:51;;;;;;;1.92;1.30;;;1.90;99.90;;;;;;5040798;28;20431;-70
2023/03/08 09:21:18;;;;;;;1.83;1.10;;;1.90;99.90;;;;;;5055413;28;20435;-70
2023/03/08 09:23:45;;;;;;;1.00;1.00;;;1.90;99.90;;;;;;5037640;28;20435;-69
2023/03/08 09:26:13;;;;;;;2.38;2.15;;;1.80;99.90;;;;;;5045284;28;20441;-70
2023/03/08 09:28:40;;;;;;;2.30;1.13;;;1.80;99.90;;;;;;5047035;28;20517;-70
2023/03/08 09:31:11;;;;;;;0.95;0.95;;;1.90;1.00;;;;;;5039887;28;20441;-70
2023/03/08 09:33:50;;;;;;;1.40;1.30;;;1.90;1.00;;;;;;5037122;28;20425;-70
2023/03/08 09:36:21;;;;;;;1.52;1.02;;;1.90;90.30;;;;;;5041802;28;20930;-70
2023/03/08 09:38:52;;;;;;;1.80;1.17;;;1.90;1.00;;;;;;5044306;28;20425;-70
2023/03/08 09:41:33;;;;;;;1.08;1.08;;;1.80;99.90;;;;;;5048592;28;20526;-70
2023/03/08 09:44:21;;;;;;;1.20;1.10;;;1.80;1.00;;;;;;5050383;28;20431;-70
2023/03/08 09:46:54;;;;;;;1.52;1.42;;;1.90;1.00;;;;;;5048577;28;20468;-70
2023/03/08 09:49:26;;;;;;;2.30;1.53;;;1.90;1.00;;;;;;5047332;28;20502;-70
2023/03/08 09:52:14;;;;;;;2.00;1.80;;;1.90;1.00;;;;;;5051724;28;20495;-70
2023/03/08 09:54:41;;;;;;;1.77;1.67;;;1.90;30.10;;;;;;5050518;28;20463;-70
2023/03/08 09:57:28;;;;;;;2.95;1.85;;;2.00;99.90;;;;;;5037325;28;20459;-70
2023/03/08 09:59:57;;;;;;;9.85;2.33;;;2.10;99.90;;;;;;5049009;28;20427;-70
2023/03/08 10:03:00;;;;;;;1.25;0.93;;;2.10;47.60;;;;;;5047740;28;20422;-70
2023/03/08 10:05:33;;;;;;;3.13;1.80;;;2.10;1.00;;;;;;5029965;28;20427;-70
2023/03/08 10:08:15;;;;;;;2.50;1.98;;;2.20;1.00;;;;;;5047585;28;20428;-70
2023/03/08 10:10:53;;;;;;;1.50;1.40;;;2.10;99.90;;;;;;5041965;28;20427;-69
2023/03/08 10:13:39;;;;;;;1.23;1.05;;;2.10;99.90;;;;;;5036964;28;20513;-70
2023/03/08 10:16:28;;;;;;;1.17;1.13;;;2.00;1.00;;;;;;5046260;28;20432;-71
2023/03/08 10:19:16;;;;;;;1.13;1.02;;;2.10;99.90;;;;;;5049026;28;20494;-71
2023/03/08 10:21:44;;;;;;;1.35;1.25;;;2.10;99.90;;;;;;5030500;28;20435;-71
2023/03/08 10:24:27;;;;;;;1.17;1.10;;;2.10;99.90;;;;;;5039159;28;21209;-71
2023/03/08 10:27:09;;;;;;;3.30;0.80;;;2.10;99.90;;;;;;5050276;28;20433;-71
2023/03/08 10:29:36;;;;;;;1.33;0.73;;;2.10;99.90;;;;;;5044998;28;20816;-71
2023/03/08 10:32:04;;;;;;;2.25;1.77;;;2.10;99.90;;;;;;5040452;28;20436;-71
2023/03/08 10:34:32;;;;;;;2.00;1.13;;;2.20;99.90;;;;;;5045089;28;20433;-71
2023/03/08 10:37:03;;;;;;;0.68;0.68;;;2.10;99.90;;;;;;5049676;28;21056;-71
2023/03/08 10:39:29;;;;;;;2.17;1.40;;;2.20;99.90;;;;;;5044944;28;20485;-71
2023/03/08 10:42:05;;;;;;;2.13;1.58;;;2.30;99.90;;;;;;5035364;28;20434;-72
2023/03/08 10:44:39;;;;;;;3.97;1.60;;;2.40;1.00;;;;;;5035949;28;20433;-71
2023/03/08 10:47:23;;;;;;;1.17;1.17;;;2.40;1.00;;;;;;5045282;28;20429;-72
2023/03/08 10:50:09;;;;;;;2.30;1.35;;;2.50;1.00;;;;;;5048573;28;20521;-72
2023/03/08 10:52:36;;;;;;;1.45;1.38;;;2.50;99.90;;;;;;5037292;28;20512;-72
2023/03/08 10:55:09;;;;;;;3.13;1.73;;;2.50;99.90;;;;;;5039873;28;20508;-73
2023/03/08 10:57:37;;;;;;;1.53;1.43;;;2.50;99.90;;;;;;5044183;28;20438;-72
2023/03/08 11:00:34;;;;;;;1.33;1.23;;;2.50;99.90;;;;;;5046279;28;20461;-72
2023/03/08 11:03:22;;;;;;;1.15;1.15;;;2.50;99.90;;;;;;5048046;28;20439;-72
2023/03/08 11:05:59;;;;;;;3.40;1.70;;;2.50;99.90;;;;;;5038636;28;20516;-72
2023/03/08 11:08:38;;;;;;;0.90;0.90;;;2.50;99.90;;;;;;5047279;28;20433;-72
2023/03/08 11:11:08;;;;;;;1.60;1.33;;;2.60;1.00;;;;;;5042076;28;20434;-73
2023/03/08 11:13:40;;;;;;;1.30;1.20;;;2.50;99.90;;;;;;5041498;28;20429;-73
2023/03/08 11:16:38;;;;;;;4.47;1.83;;;2.60;1.00;;;;;;5042535;28;20785;-76
2023/03/08 11:19:27;;;;;;;1.90;1.58;;;2.60;1.00;;;;;;5041648;28;20431;-73
2023/03/08 11:22:20;;;;;;;1.07;1.03;;;2.70;1.00;;;;;;5039172;28;20425;-73
2023/03/08 11:25:09;;;;;;;1.02;1.02;;;2.80;1.00;;;;;;5037297;28;20437;-73
2023/03/08 11:27:45;;;;;;;1.35;1.23;;;2.80;1.00;;;;;;5043867;28;20848;-73
2023/03/08 11:30:29;;;;;;;0.98;0.95;;;2.80;1.00;;;;;;5043765;28;20443;-73
2023/03/08 11:33:18;;;;;;;1.60;1.50;;;2.90;1.00;;;;;;5046327;28;20510;-73
2023/03/08 11:36:05;;;;;;;0.70;0.65;;;2.80;1.00;;;;;;5038147;28;20431;-73
2023/03/08 11:38:33;;;;;;;1.67;1.50;;;2.90;1.00;;;;;;5042138;28;20811;-73
2023/03/08 11:41:22;;;;;;;0.70;0.70;;;3.00;1.00;;;;;;5039801;28;21184;-73
2023/03/08 11:44:07;;;;;;;1.20;1.10;;;3.10;1.70;;;;;;5046216;28;21107;-73
2023/03/08 11:47:15;;;;;;;0.77;0.77;;;3.10;1.00;;;;;;5045320;28;20441;-73
2023/03/08 11:50:06;;;;;;;1.17;1.17;;;3.10;1.00;;;;;;5032308;28;20438;-73
2023/03/08 11:52:57;;;;;;;2.08;1.60;;;3.20;1.00;;;;;;5033852;28;20496;-73
2023/03/08 11:56:00;;;;;;;1.57;1.20;;;3.20;99.90;;;;;;5041063;28;20472;-74
2023/03/08 11:58:40;;;;;;;3.90;0.88;;;3.20;99.90;;;;;;5040683;28;20447;-74
2023/03/08 12:01:31;;;;;;;1.50;1.33;;;3.10;99.90;;;;;;5039879;28;20532;-74
2023/03/08 12:04:06;;;;;;;1.27;1.27;;;3.20;1.00;;;;;;5032253;28;21014;-73
2023/03/08 12:06:42;;;;;;;1.33;1.23;;;3.10;1.00;;;;;;5023089;28;20433;-73
2023/03/08 12:09:25;;;;;;;2.45;1.20;;;3.20;1.00;;;;;;5040331;28;20514;-73
2023/03/08 12:12:21;;;;;;;1.10;1.10;;;3.30;8.20;;;;;;5040421;28;20435;-73
2023/03/08 12:15:02;;;;;;;2.17;1.88;;;3.30;1.00;;;;;;5034298;28;20430;-74
2023/03/08 12:17:37;;;;;;;1.65;1.58;;;3.40;1.00;;;;;;5033809;28;20835;-74
2023/03/08 12:20:18;;;;;;;2.40;1.27;;;3.50;1.00;;;;;;5037992;28;20525;-74
2023/03/08 12:23:27;;;;;;;1.10;1.10;;;3.50;1.00;;;;;;5044093;28;20437;-73
2023/03/08 12:26:03;;;;;;;1.80;1.00;;;3.40;1.00;;;;;;5040766;28;20463;-74
2023/03/08 12:28:40;;;;;;;1.08;1.08;;;3.40;1.00;;;;;;5040887;28;20915;-74
2023/03/08 12:31:24;;;;;;;1.38;1.30;;;3.40;1.00;;;;;;5040779;28;20437;-74
2023/03/08 12:33:56;;;;;;;1.92;1.83;;;3.50;1.00;;;;;;5046505;28;20857;-74
2023/03/08 12:36:37;;;;;;;2.90;1.52;;;3.60;68.30;;;;;;5041912;28;20440;-74
2023/03/08 12:39:07;;;;;;;2.80;1.70;;;3.70;99.90;;;;;;5041679;28;20537;-74
2023/03/08 12:41:34;;;;;;;1.00;1.00;;;3.70;99.90;;;;;;5047157;28;20438;-74
2023/03/08 12:44:24;;;;;;;2.10;1.30;;;3.80;73.20;;;;;;5046179;28;20440;-74
2023/03/08 12:47:00;;;;;;;1.58;1.58;;;3.80;82.60;;;;;;5041505;28;20439;-74
2023/03/08 12:49:36;;;;;;;2.50;1.70;;;3.90;99.90;;;;;;5043900;28;20438;-74
2023/03/08 12:52:19;;;;;;;1.42;1.42;;;4.00;76.10;;;;;;5048456;28;20528;-74
2023/03/08 12:55:04;;;;;;;2.22;2.10;;;4.00;1.00;;;;;;5047334;28;20437;-74
2023/03/08 12:57:35;;;;;;;1.65;1.55;;;4.10;1.00;;;;;;5045808;28;20455;-75
2023/03/08 13:00:09;;;;;;;1.30;1.20;;;4.00;1.00;;;;;;5048161;28;20526;-74
2023/03/08 13:02:36;;;;;;;1.05;1.02;;;4.00;1.00;;;;;;5049815;28;20425;-75
2023/03/08 13:05:19;;;;;;;1.47;1.40;;;4.00;1.00;;;;;;5045303;28;20425;-74
2023/03/08 13:08:13;;;;;;;0.80;0.80;;;3.90;1.00;;;;;;5043005;28;20447;-74
2023/03/08 13:10:52;;;;;;;2.90;2.08;;;3.90;1.00;;;;;;5050751;28;20469;-74
2023/03/08 13:14:04;;;;;;;0.98;0.98;;;4.00;1.00;;;;;;5051537;28;20432;-75
2023/03/08 13:16:35;;;;;;;1.38;1.23;;;4.00;1.00;;;;;;5045322;28;20438;-74
2023/03/08 13:19:14;;;;;;;1.15;1.13;;;4.00;1.00;;;;;;5049555;28;20520;-75
2023/03/08 13:22:08;;;;;;;1.10;0.75;;;4.00;1.00;;;;;;5048200;28;20429;-74
2023/03/08 13:24:56;;;;;;;1.73;1.63;;;4.00;1.00;;;;;;5046454;28;20435;-74